createdAt,value
2023-05-17T00:00:19.200Z,61.69
2023-05-17T00:02:46.098Z,61.83
2023-05-17T00:05:12.766Z,61.72
2023-05-17T00:07:39.517Z,61.49
2023-05-17T00:10:07.110Z,61.52
2023-05-17T00:12:34.445Z,61.70
2023-05-17T00:15:01.071Z,61.70
2023-05-17T00:17:27.811Z,61.78
2023-05-17T00:19:54.799Z,62.12
2023-05-17T00:22:21.486Z,62.14
2023-05-17T00:24:48.326Z,62.18
2023-05-17T00:27:15.021Z,62.08
2023-05-17T00:29:42.399Z,62.11
2023-05-17T00:32:11.214Z,62.18
2023-05-17T00:34:37.911Z,62.37
2023-05-17T00:37:04.753Z,62.44
2023-05-17T00:39:31.508Z,62.55
2023-05-17T00:41:58.128Z,62.71
2023-05-17T00:44:25.209Z,62.73
2023-05-17T00:46:51.864Z,62.67
2023-05-17T00:49:18.862Z,62.68
2023-05-17T00:51:45.560Z,62.67
2023-05-17T00:54:12.834Z,62.69
2023-05-17T00:56:39.584Z,62.64
2023-05-17T00:59:06.323Z,62.71
2023-05-17T01:01:33.674Z,62.55
2023-05-17T01:04:01.658Z,62.51
2023-05-17T01:06:30.181Z,62.42
2023-05-17T01:08:59.624Z,62.61
2023-05-17T01:11:47.620Z,62.47
2023-05-17T01:14:26.794Z,62.14
2023-05-17T01:17:02.417Z,61.74
2023-05-17T01:19:58.716Z,61.68
2023-05-17T01:22:49.922Z,61.78
2023-05-17T01:25:18.240Z,61.54
2023-05-17T01:27:45.422Z,61.66
2023-05-17T01:30:13.254Z,61.71
2023-05-17T01:32:43.260Z,61.79
2023-05-17T01:35:10.901Z,62.07
2023-05-17T01:37:39.094Z,62.28
2023-05-17T01:40:08.252Z,62.21
2023-05-17T01:42:39.471Z,62.46
2023-05-17T01:45:07.805Z,62.53
2023-05-17T01:48:00.476Z,62.57
2023-05-17T01:50:29.004Z,62.73
2023-05-17T01:53:01.879Z,62.92
2023-05-17T01:55:43.071Z,63.40
2023-05-17T01:58:10.753Z,63.56
2023-05-17T02:00:38.902Z,63.48
2023-05-17T02:03:05.987Z,63.43
2023-05-17T02:05:33.340Z,63.33
2023-05-17T02:08:00.051Z,63.28
2023-05-17T02:10:27.316Z,63.20
2023-05-17T02:12:53.937Z,63.21
2023-05-17T02:15:20.595Z,63.05
2023-05-17T02:17:47.404Z,62.86
2023-05-17T02:20:15.062Z,62.93
2023-05-17T02:22:41.846Z,62.98
2023-05-17T02:25:08.962Z,62.99
2023-05-17T02:27:35.821Z,63.18
2023-05-17T02:30:03.844Z,63.34
2023-05-17T02:32:32.556Z,63.41
2023-05-17T02:34:59.282Z,63.51
2023-05-17T02:37:25.984Z,63.84
2023-05-17T02:39:52.868Z,64.18
2023-05-17T02:42:19.692Z,64.45
2023-05-17T02:44:48.294Z,64.92
2023-05-17T02:47:15.105Z,65.25
2023-05-17T02:49:41.837Z,65.60
2023-05-17T02:52:08.586Z,66.11
2023-05-17T02:54:35.365Z,66.68
2023-05-17T02:57:02.805Z,67.28
2023-05-17T02:59:29.529Z,68.15
2023-05-17T03:01:56.362Z,68.81
2023-05-17T03:04:23.235Z,69.10
2023-05-17T03:06:50.525Z,69.45
2023-05-17T03:09:17.663Z,69.48
2023-05-17T03:11:47.395Z,69.59
2023-05-17T03:14:19.495Z,69.45
2023-05-17T03:16:46.216Z,69.40
2023-05-17T03:19:13.614Z,69.28
2023-05-17T03:21:42.400Z,69.11
2023-05-17T03:24:09.041Z,69.03
2023-05-17T03:26:36.797Z,69.11
2023-05-17T03:29:04.699Z,68.82
2023-05-17T03:31:31.783Z,68.76
2023-05-17T03:33:58.571Z,68.57
2023-05-17T03:36:25.703Z,68.46
2023-05-17T03:38:52.350Z,68.33
2023-05-17T03:41:19.764Z,68.35
2023-05-17T03:43:47.217Z,68.31
2023-05-17T03:46:15.281Z,67.88
2023-05-17T03:48:42.003Z,67.74
2023-05-17T03:51:09.923Z,67.74
2023-05-17T03:53:40.626Z,67.94
2023-05-17T03:56:07.797Z,67.90
2023-05-17T03:58:34.538Z,67.78
2023-05-17T04:01:01.241Z,67.64
2023-05-17T04:03:28.519Z,67.66
2023-05-17T04:06:06.264Z,67.71
2023-05-17T04:08:34.435Z,67.54
2023-05-17T04:11:09.784Z,67.48
2023-05-17T04:13:37.294Z,67.23
2023-05-17T04:16:05.033Z,66.74
2023-05-17T04:18:35.836Z,66.65
2023-05-17T04:21:03.183Z,66.16
2023-05-17T04:23:31.005Z,65.61
2023-05-17T04:25:58.787Z,65.21
2023-05-17T04:28:26.524Z,64.58
2023-05-17T04:30:53.690Z,64.11
2023-05-17T04:33:23.887Z,63.75
2023-05-17T04:35:51.009Z,63.35
2023-05-17T04:38:19.122Z,63.30
2023-05-17T04:40:45.880Z,63.16
2023-05-17T04:43:13.052Z,62.93
2023-05-17T04:45:41.224Z,62.38
2023-05-17T04:48:08.529Z,62.49
2023-05-17T04:50:35.349Z,62.63
2023-05-17T04:53:02.550Z,62.52
2023-05-17T04:55:30.144Z,62.24
2023-05-17T04:57:57.700Z,62.22
2023-05-17T05:00:24.955Z,62.17
2023-05-17T05:02:58.439Z,62.07
2023-05-17T05:05:25.839Z,61.99
2023-05-17T05:07:52.623Z,61.98
2023-05-17T05:10:19.759Z,61.62
2023-05-17T05:12:47.383Z,61.51
2023-05-17T05:15:14.288Z,61.19
2023-05-17T05:17:42.762Z,61.28
2023-05-17T05:20:10.303Z,61.38
2023-05-17T05:22:37.260Z,61.02
2023-05-17T05:25:04.702Z,60.56
2023-05-17T05:27:32.056Z,60.55
2023-05-17T05:29:58.816Z,60.38
2023-05-17T05:32:25.530Z,60.54
2023-05-17T05:34:53.380Z,60.61
2023-05-17T05:37:20.314Z,60.59
2023-05-17T05:39:47.651Z,60.19
2023-05-17T05:42:14.885Z,59.77
2023-05-17T05:44:41.511Z,59.82
2023-05-17T05:47:09.142Z,59.87
2023-05-17T05:49:36.973Z,59.84
2023-05-17T05:52:04.192Z,58.75
2023-05-17T05:54:32.721Z,58.00
2023-05-17T05:57:01.279Z,57.97
2023-05-17T05:59:28.616Z,57.94
2023-05-17T06:01:57.038Z,58.02
2023-05-17T06:04:36.283Z,57.20
2023-05-17T06:07:11.911Z,56.77
2023-05-17T06:09:39.496Z,56.64
2023-05-17T06:12:06.492Z,56.30
2023-05-17T06:14:33.366Z,56.28
2023-05-17T06:17:00.123Z,55.58
2023-05-17T06:19:27.015Z,54.44
2023-05-17T06:21:54.182Z,53.82
2023-05-17T06:24:21.515Z,53.39
2023-05-17T06:26:48.252Z,52.90
2023-05-17T06:29:15.242Z,52.37
2023-05-17T06:31:41.876Z,52.63
2023-05-17T06:34:09.055Z,52.02
2023-05-17T06:36:37.555Z,51.25
2023-05-17T06:39:05.435Z,50.64
2023-05-17T06:41:32.278Z,50.46
2023-05-17T06:43:59.081Z,50.01
2023-05-17T06:46:25.803Z,49.92
2023-05-17T06:48:52.803Z,48.48
2023-05-17T06:51:19.907Z,47.76
2023-05-17T06:53:46.748Z,47.48
2023-05-17T06:56:14.218Z,47.45
2023-05-17T06:58:41.103Z,46.66
2023-05-17T07:01:08.202Z,46.59
2023-05-17T07:03:35.604Z,46.07
2023-05-17T07:06:02.881Z,46.14
2023-05-17T07:08:30.325Z,45.96
2023-05-17T07:10:57.316Z,45.93
2023-05-17T07:13:24.235Z,44.68
2023-05-17T07:15:51.176Z,43.78
2023-05-17T07:18:18.481Z,42.93
2023-05-17T07:20:45.806Z,43.16
2023-05-17T07:23:12.726Z,43.59
2023-05-17T07:25:39.999Z,43.51
2023-05-17T07:28:07.291Z,43.22
2023-05-17T07:30:34.281Z,42.30
2023-05-17T07:33:01.442Z,41.95
2023-05-17T07:35:28.468Z,41.38
2023-05-17T07:37:55.662Z,39.93
2023-05-17T07:40:22.515Z,39.10
2023-05-17T07:42:49.610Z,39.44
2023-05-17T07:45:16.532Z,38.65
2023-05-17T07:47:43.643Z,37.15
2023-05-17T07:50:11.082Z,37.41
2023-05-17T07:52:38.192Z,37.72
2023-05-17T07:55:06.398Z,37.74
2023-05-17T07:57:33.572Z,37.08
2023-05-17T08:00:00.378Z,37.12
2023-05-17T08:02:27.270Z,36.69
2023-05-17T08:04:56.497Z,36.40
2023-05-17T08:07:23.358Z,36.12
2023-05-17T08:09:50.948Z,35.81
2023-05-17T08:12:18.014Z,35.81
2023-05-17T08:14:45.051Z,35.01
2023-05-17T08:17:11.826Z,35.27
2023-05-17T08:19:38.903Z,34.75
2023-05-17T08:22:06.089Z,34.37
2023-05-17T08:24:32.930Z,34.33
2023-05-17T08:27:00.616Z,34.60
2023-05-17T08:29:27.736Z,34.31
2023-05-17T08:31:54.574Z,34.64
2023-05-17T08:34:21.990Z,34.02
2023-05-17T08:36:48.916Z,34.03
2023-05-17T08:39:16.004Z,34.31
2023-05-17T08:41:42.962Z,33.86
2023-05-17T08:44:09.780Z,34.43
2023-05-17T08:46:36.680Z,34.30
2023-05-17T08:49:03.610Z,34.43
2023-05-17T08:51:30.841Z,34.89
2023-05-17T08:53:57.945Z,34.18
2023-05-17T08:56:25.397Z,33.77
2023-05-17T08:58:57.575Z,33.06
2023-05-17T09:01:26.389Z,33.35
2023-05-17T09:03:54.090Z,33.61
2023-05-17T09:06:21.739Z,33.42
2023-05-17T09:08:52.536Z,32.85
2023-05-17T09:11:29.452Z,32.63
2023-05-17T09:14:00.340Z,32.64
2023-05-17T09:16:35.615Z,32.48
2023-05-17T09:19:06.522Z,31.96
2023-05-17T09:21:36.462Z,32.14
2023-05-17T09:24:07.431Z,32.58
2023-05-17T09:26:45.161Z,32.09
2023-05-17T09:29:13.571Z,31.43
2023-05-17T09:31:40.762Z,30.72
2023-05-17T09:34:08.038Z,30.93
2023-05-17T09:36:36.446Z,30.28
2023-05-17T09:39:11.421Z,30.19
2023-05-17T09:41:42.228Z,30.62
2023-05-17T09:44:09.632Z,30.79
2023-05-17T09:46:41.149Z,30.96
2023-05-17T09:49:08.820Z,30.24
2023-05-17T09:51:43.532Z,29.86
2023-05-17T09:54:10.962Z,29.68
2023-05-17T09:56:37.935Z,29.75
2023-05-17T09:59:13.533Z,29.83
2023-05-17T10:01:41.415Z,30.16
2023-05-17T10:04:11.646Z,29.60
2023-05-17T10:06:47.551Z,29.54
2023-05-17T10:09:17.934Z,29.15
2023-05-17T10:11:48.520Z,28.91
2023-05-17T10:14:18.485Z,28.94
2023-05-17T10:16:45.946Z,29.46
2023-05-17T10:19:13.714Z,28.68
2023-05-17T10:21:40.660Z,28.00
2023-05-17T10:24:07.716Z,27.84
2023-05-17T10:26:35.117Z,27.90
2023-05-17T10:29:02.559Z,27.85
2023-05-17T10:31:35.977Z,27.76
2023-05-17T10:34:04.745Z,27.32
2023-05-17T10:36:31.869Z,26.86
2023-05-17T10:38:59.220Z,27.09
2023-05-17T10:41:28.466Z,26.95
2023-05-17T10:43:55.287Z,26.92
2023-05-17T10:46:23.033Z,26.17
2023-05-17T10:48:51.436Z,25.91
2023-05-17T10:51:25.738Z,25.96
2023-05-17T10:54:11.896Z,24.94
2023-05-17T10:56:46.664Z,24.53
2023-05-17T10:59:21.292Z,24.39
2023-05-17T11:02:04.837Z,24.45
2023-05-17T11:04:38.807Z,23.77
2023-05-17T11:07:23.599Z,23.36
2023-05-17T11:09:53.490Z,23.21
2023-05-17T11:12:40.576Z,23.20
2023-05-17T11:15:11.630Z,23.84
2023-05-17T11:17:54.088Z,23.18
2023-05-17T11:20:27.602Z,22.44
2023-05-17T11:22:58.190Z,22.15
2023-05-17T11:25:31.007Z,22.01
2023-05-17T11:27:58.349Z,22.29
2023-05-17T11:30:32.827Z,22.17
2023-05-17T11:33:08.806Z,23.31
2023-05-17T11:35:40.952Z,24.07
2023-05-17T11:38:34.423Z,23.94
2023-05-17T11:43:51.064Z,24.20
2023-05-17T11:46:22.173Z,24.83
2023-05-17T11:48:53.057Z,25.44
2023-05-17T11:51:21.976Z,26.43
2023-05-17T11:53:55.548Z,27.54
2023-05-17T11:56:29.186Z,28.07
2023-05-17T11:58:59.585Z,28.66
2023-05-17T12:01:26.451Z,29.28
2023-05-17T12:03:59.151Z,29.27
2023-05-17T12:06:28.180Z,29.39
2023-05-17T12:08:55.094Z,29.59
2023-05-17T12:11:21.803Z,29.44
2023-05-17T12:13:48.707Z,29.71
2023-05-17T12:16:18.132Z,29.99
2023-05-17T12:18:49.016Z,30.32
2023-05-17T12:21:17.582Z,30.72
2023-05-17T12:23:45.774Z,30.97
2023-05-17T12:26:13.942Z,31.51
2023-05-17T12:28:45.523Z,31.68
2023-05-17T12:31:14.157Z,31.65
2023-05-17T12:33:42.211Z,31.98
2023-05-17T12:36:10.545Z,32.23
2023-05-17T12:38:39.212Z,32.19
2023-05-17T12:41:06.972Z,32.02
2023-05-17T12:43:34.179Z,32.14
2023-05-17T12:46:08.704Z,32.14
2023-05-17T12:48:36.338Z,32.61
2023-05-17T12:51:11.954Z,32.43
2023-05-17T12:53:41.002Z,32.26
2023-05-17T12:56:07.991Z,32.14
2023-05-17T12:58:35.556Z,32.13
2023-05-17T13:01:02.894Z,32.18
2023-05-17T13:03:30.770Z,32.62
2023-05-17T13:06:04.648Z,32.76
2023-05-17T13:08:31.808Z,33.03
2023-05-17T13:11:06.410Z,33.15
2023-05-17T13:13:33.686Z,32.99
2023-05-17T13:16:00.407Z,33.48
2023-05-17T13:18:28.442Z,33.77
2023-05-17T13:20:55.283Z,33.69
2023-05-17T13:23:22.018Z,33.68
2023-05-17T13:25:48.752Z,32.96
2023-05-17T13:28:15.784Z,32.16
2023-05-17T13:30:49.352Z,32.03
2023-05-17T13:33:16.433Z,32.02
2023-05-17T13:35:43.356Z,30.43
2023-05-17T13:38:10.201Z,29.75
2023-05-17T13:40:37.314Z,29.89
2023-05-17T13:43:04.101Z,30.00
2023-05-17T13:45:30.805Z,30.12
2023-05-17T13:47:59.026Z,29.48
2023-05-17T13:50:26.293Z,29.01
2023-05-17T13:52:53.190Z,29.15
2023-05-17T13:55:20.013Z,28.49
2023-05-17T13:57:46.801Z,28.03
2023-05-17T14:00:14.117Z,27.31
2023-05-17T14:02:42.063Z,26.23
2023-05-17T14:05:09.470Z,26.56
2023-05-17T14:07:40.889Z,27.22
2023-05-17T14:10:08.906Z,27.75
2023-05-17T14:12:36.123Z,28.02
2023-05-17T14:15:05.652Z,28.46
2023-05-17T14:17:32.837Z,29.34
2023-05-17T14:19:59.765Z,29.81
2023-05-17T14:22:26.616Z,30.23
2023-05-17T14:24:53.238Z,30.84
2023-05-17T14:27:20.150Z,31.12
2023-05-17T14:29:47.010Z,30.68
2023-05-17T14:32:15.011Z,30.89
2023-05-17T14:34:41.917Z,31.31
2023-05-17T14:37:08.904Z,31.41
2023-05-17T14:39:35.656Z,31.35
2023-05-17T14:42:02.635Z,31.19
2023-05-17T14:44:30.569Z,30.98
2023-05-17T14:46:57.318Z,30.58
2023-05-17T14:49:24.043Z,30.80
2023-05-17T14:51:51.307Z,30.78
2023-05-17T14:54:18.277Z,31.06
2023-05-17T14:56:44.986Z,30.57
2023-05-17T14:59:12.012Z,30.65
2023-05-17T15:01:38.696Z,30.71
2023-05-17T15:04:05.521Z,30.08
2023-05-17T15:06:32.439Z,29.92
2023-05-17T15:09:01.619Z,30.18
2023-05-17T15:11:28.911Z,29.78
2023-05-17T15:13:56.897Z,29.94
2023-05-17T15:16:23.645Z,30.15
2023-05-17T15:18:51.514Z,30.41
2023-05-17T15:21:18.365Z,30.77
2023-05-17T15:23:46.170Z,30.95
2023-05-17T15:26:13.139Z,31.18
2023-05-17T15:28:40.403Z,31.23
2023-05-17T15:31:10.063Z,31.34
2023-05-17T15:33:39.011Z,31.54
2023-05-17T15:36:06.618Z,31.60
2023-05-17T15:38:34.145Z,31.45
2023-05-17T15:41:05.323Z,31.06
2023-05-17T15:43:33.299Z,30.83
2023-05-17T15:46:00.303Z,31.07
2023-05-17T15:48:28.670Z,30.80
2023-05-17T15:50:55.890Z,31.07
2023-05-17T15:53:24.361Z,31.11
2023-05-17T15:55:51.238Z,31.39
2023-05-17T15:58:19.069Z,31.18
2023-05-17T16:00:45.922Z,31.14
2023-05-17T16:03:13.243Z,31.33
2023-05-17T16:05:40.518Z,31.51
2023-05-17T16:08:08.150Z,31.72
2023-05-17T16:10:35.804Z,31.74
2023-05-17T16:13:03.537Z,31.89
2023-05-17T16:15:30.750Z,32.09
2023-05-17T16:17:57.863Z,32.22
2023-05-17T16:20:24.748Z,32.07
2023-05-17T16:22:53.168Z,32.19
2023-05-17T16:25:21.362Z,32.26
2023-05-17T16:27:48.404Z,32.42
2023-05-17T16:30:15.554Z,32.85
2023-05-17T16:32:42.705Z,32.78
2023-05-17T16:35:12.036Z,33.14
2023-05-17T16:37:39.024Z,33.17
2023-05-17T16:40:09.308Z,33.22
2023-05-17T16:42:36.098Z,33.16
2023-05-17T16:45:02.999Z,33.31
2023-05-17T16:47:30.855Z,33.42
2023-05-17T16:49:58.036Z,33.52
2023-05-17T16:52:24.706Z,33.67
2023-05-17T16:54:51.403Z,33.87
2023-05-17T16:57:18.434Z,34.10
2023-05-17T16:59:45.057Z,34.08
2023-05-17T17:02:11.920Z,34.24
2023-05-17T17:04:38.628Z,34.34
2023-05-17T17:07:05.547Z,34.56
2023-05-17T17:09:32.194Z,34.90
2023-05-17T17:11:59.405Z,35.03
2023-05-17T17:14:27.890Z,35.09
2023-05-17T17:16:54.907Z,35.28
2023-05-17T17:19:22.153Z,35.53
2023-05-17T17:21:48.814Z,35.49
2023-05-17T17:24:15.528Z,35.79
2023-05-17T17:26:42.231Z,35.88
2023-05-17T17:29:09.796Z,36.06
2023-05-17T17:31:36.587Z,36.36
2023-05-17T17:34:03.357Z,36.52
2023-05-17T17:36:30.542Z,36.72
2023-05-17T17:38:57.393Z,36.74
2023-05-17T17:41:24.260Z,36.78
2023-05-17T17:43:50.873Z,36.77
2023-05-17T17:46:17.520Z,36.91
2023-05-17T17:48:44.354Z,36.91
2023-05-17T17:51:11.280Z,36.76
2023-05-17T17:53:40.725Z,36.67
2023-05-17T17:56:08.233Z,36.48
2023-05-17T17:58:36.022Z,36.53
2023-05-17T18:01:02.843Z,36.68
2023-05-17T18:03:29.631Z,36.35
2023-05-17T18:05:56.282Z,36.48
2023-05-17T18:08:23.107Z,36.32
2023-05-17T18:10:50.105Z,36.44
2023-05-17T18:13:17.185Z,36.43
2023-05-17T18:15:44.644Z,36.48
2023-05-17T18:18:11.366Z,36.97
2023-05-17T18:20:38.385Z,37.27
2023-05-17T18:23:05.132Z,37.23
2023-05-17T18:25:33.538Z,37.18
2023-05-17T18:28:00.392Z,36.93
2023-05-17T18:30:27.135Z,36.99
2023-05-17T18:32:54.138Z,37.04
2023-05-17T18:35:21.014Z,37.09
2023-05-17T18:37:47.655Z,37.19
2023-05-17T18:40:14.461Z,37.51
2023-05-17T18:42:41.286Z,37.64
2023-05-17T18:45:08.433Z,37.53
2023-05-17T18:47:35.655Z,37.66
2023-05-17T18:50:02.312Z,37.77
2023-05-17T18:52:29.927Z,37.88
2023-05-17T18:54:56.621Z,38.08
2023-05-17T18:57:23.315Z,38.04
2023-05-17T18:59:49.995Z,38.15
2023-05-17T19:02:16.686Z,38.40
2023-05-17T19:04:43.587Z,38.39
2023-05-17T19:07:10.359Z,38.54
2023-05-17T19:09:37.353Z,38.64
2023-05-17T19:12:04.843Z,38.91
2023-05-17T19:14:31.805Z,38.89
2023-05-17T19:16:59.196Z,38.95
2023-05-17T19:19:26.361Z,39.02
2023-05-17T19:21:53.270Z,39.09
2023-05-17T19:24:20.599Z,39.22
2023-05-17T19:26:47.367Z,39.36
2023-05-17T19:29:14.133Z,39.50
2023-05-17T19:31:40.918Z,39.74
2023-05-17T19:34:07.522Z,40.09
2023-05-17T19:36:34.244Z,40.32
2023-05-17T19:39:01.169Z,40.56
2023-05-17T19:41:27.830Z,40.66
2023-05-17T19:43:54.460Z,40.89
2023-05-17T19:46:21.607Z,41.08
2023-05-17T19:48:48.807Z,41.31
2023-05-17T19:51:15.540Z,41.66
2023-05-17T19:53:52.713Z,41.90
2023-05-17T19:56:23.482Z,42.34
2023-05-17T19:58:51.632Z,42.70
2023-05-17T20:01:18.271Z,42.97
2023-05-17T20:03:45.143Z,43.35
2023-05-17T20:06:14.458Z,43.48
2023-05-17T20:08:41.397Z,43.58
2023-05-17T20:11:08.084Z,43.60
2023-05-17T20:13:39.396Z,43.55
2023-05-17T20:16:12.179Z,43.62
2023-05-17T20:18:42.962Z,43.72
2023-05-17T20:21:11.858Z,43.90
2023-05-17T20:23:38.532Z,44.27
2023-05-17T20:26:05.399Z,44.67
2023-05-17T20:28:32.265Z,44.93
2023-05-17T20:30:59.113Z,45.20
2023-05-17T20:33:26.118Z,45.16
2023-05-17T20:35:53.230Z,45.33
2023-05-17T20:38:20.971Z,45.57
2023-05-17T20:40:47.697Z,45.69
2023-05-17T20:43:16.086Z,45.81
2023-05-17T20:45:42.923Z,46.03
2023-05-17T20:48:10.041Z,46.13
2023-05-17T20:50:38.574Z,46.16
2023-05-17T20:53:05.638Z,46.39
2023-05-17T20:55:32.752Z,46.40
2023-05-17T20:57:59.793Z,46.61
2023-05-17T21:00:26.608Z,46.65
2023-05-17T21:02:53.658Z,46.77
2023-05-17T21:05:21.169Z,46.91
2023-05-17T21:07:49.952Z,47.07
2023-05-17T21:10:17.350Z,47.21
2023-05-17T21:12:44.884Z,47.32
2023-05-17T21:15:16.960Z,47.52
2023-05-17T21:17:44.608Z,47.64
2023-05-17T21:20:11.622Z,47.70
2023-05-17T21:22:38.277Z,47.70
2023-05-17T21:25:05.484Z,47.83
2023-05-17T21:27:33.365Z,47.99
2023-05-17T21:30:00.941Z,48.09
2023-05-17T21:32:27.637Z,48.24
2023-05-17T21:34:54.579Z,48.42
2023-05-17T21:37:21.434Z,48.48
2023-05-17T21:39:48.157Z,48.64
2023-05-17T21:42:14.888Z,48.65
2023-05-17T21:44:41.564Z,48.75
2023-05-17T21:47:08.413Z,48.77
2023-05-17T21:49:35.345Z,48.96
2023-05-17T21:52:02.622Z,49.08
2023-05-17T21:54:29.603Z,49.26
2023-05-17T21:56:56.250Z,49.42
2023-05-17T21:59:24.501Z,49.57
2023-05-17T22:01:54.501Z,49.77
2023-05-17T22:04:21.118Z,49.88
2023-05-17T22:06:47.750Z,49.91
2023-05-17T22:09:14.495Z,50.06
2023-05-17T22:11:41.957Z,50.39
2023-05-17T22:14:08.761Z,50.55
2023-05-17T22:16:36.159Z,50.60
2023-05-17T22:19:04.412Z,50.79
2023-05-17T22:21:32.228Z,50.89
2023-05-17T22:23:58.929Z,50.98
2023-05-17T22:26:27.132Z,51.14
2023-05-17T22:28:55.098Z,51.14
2023-05-17T22:31:22.301Z,51.32
2023-05-17T22:33:49.807Z,51.44
2023-05-17T22:36:16.784Z,51.54
2023-05-17T22:38:43.725Z,51.56
2023-05-17T22:41:11.089Z,51.70
2023-05-17T22:43:38.936Z,51.75
2023-05-17T22:46:05.828Z,51.82
2023-05-17T22:48:32.941Z,52.12
2023-05-17T22:51:02.278Z,52.32
2023-05-17T22:53:29.573Z,52.41
2023-05-17T22:55:56.484Z,52.67
2023-05-17T22:58:23.177Z,52.71
2023-05-17T23:00:50.562Z,52.92
2023-05-17T23:03:20.735Z,53.19
2023-05-17T23:05:47.516Z,53.39
2023-05-17T23:08:17.318Z,53.57
2023-05-17T23:10:44.160Z,53.75
2023-05-17T23:13:11.672Z,53.93
2023-05-17T23:15:40.079Z,54.18
2023-05-17T23:18:07.399Z,54.41
2023-05-17T23:20:34.371Z,54.62
2023-05-17T23:23:01.150Z,54.87
2023-05-17T23:25:28.433Z,55.11
2023-05-17T23:27:57.455Z,55.34
2023-05-17T23:30:24.240Z,55.58
2023-05-17T23:32:51.923Z,55.85
2023-05-17T23:35:18.773Z,56.15
2023-05-17T23:37:45.536Z,56.34
2023-05-17T23:40:14.096Z,56.61
2023-05-17T23:42:40.983Z,56.70
2023-05-17T23:45:08.827Z,56.86
2023-05-17T23:47:39.937Z,57.04
2023-05-17T23:50:11.332Z,57.36
2023-05-17T23:52:38.736Z,57.43
2023-05-17T23:55:06.858Z,57.66
2023-05-17T23:57:34.708Z,58.00
